createdAt,value
2019-03-20T00:00:35.959Z,84.00
2019-03-20T00:03:05.781Z,83.66
2019-03-20T00:05:35.500Z,83.73
2019-03-20T00:08:05.063Z,84.40
2019-03-20T00:10:34.587Z,84.23
2019-03-20T00:13:04.198Z,84.65
2019-03-20T00:15:33.739Z,83.44
2019-03-20T00:18:03.397Z,83.38
2019-03-20T00:20:32.920Z,82.73
2019-03-20T00:23:02.461Z,82.55
2019-03-20T00:25:31.977Z,82.62
2019-03-20T00:28:01.539Z,82.04
2019-03-20T00:30:31.068Z,82.21
2019-03-20T00:33:00.599Z,82.40
2019-03-20T00:35:30.118Z,82.18
2019-03-20T00:37:59.680Z,82.17
2019-03-20T00:40:29.216Z,82.18
2019-03-20T00:42:58.758Z,82.84
2019-03-20T00:45:29.694Z,82.65
2019-03-20T00:47:59.303Z,82.53
2019-03-20T00:50:28.863Z,83.04
2019-03-20T00:52:58.413Z,82.75
2019-03-20T00:55:27.958Z,83.06
2019-03-20T00:57:57.493Z,83.87
2019-03-20T01:00:27.043Z,84.29
2019-03-20T01:02:56.582Z,84.96
2019-03-20T01:05:26.215Z,85.17
2019-03-20T01:07:55.779Z,86.33
2019-03-20T01:10:25.322Z,86.77
2019-03-20T01:12:54.877Z,87.38
2019-03-20T01:15:24.404Z,88.70
2019-03-20T01:17:53.960Z,89.40
2019-03-20T01:20:23.510Z,90.04
2019-03-20T01:22:53.072Z,91.14
2019-03-20T01:25:22.607Z,91.79
2019-03-20T01:27:52.204Z,92.39
2019-03-20T01:30:37.942Z,92.91
2019-03-20T01:33:09.054Z,93.39
2019-03-20T01:35:38.604Z,93.86
2019-03-20T01:38:08.237Z,94.56
2019-03-20T01:40:40.026Z,96.13
2019-03-20T01:43:09.159Z,96.09
2019-03-20T01:45:38.695Z,96.64
2019-03-20T01:48:08.230Z,96.50
2019-03-20T01:50:37.764Z,97.48
2019-03-20T01:53:07.306Z,96.85
2019-03-20T01:55:36.828Z,97.01
2019-03-20T01:58:06.385Z,97.20
2019-03-20T02:00:35.920Z,97.86
2019-03-20T02:03:05.477Z,98.16
2019-03-20T02:05:36.520Z,98.04
2019-03-20T02:08:06.246Z,98.17
2019-03-20T02:10:35.767Z,98.27
2019-03-20T02:13:05.315Z,98.93
2019-03-20T02:15:39.359Z,99.23
2019-03-20T02:18:06.122Z,99.73
2019-03-20T02:20:35.657Z,99.95
2019-03-20T02:23:05.283Z,100.00
2019-03-20T02:25:34.820Z,100.00
2019-03-20T02:28:04.434Z,100.00
2019-03-20T02:30:33.966Z,100.00
2019-03-20T02:33:03.518Z,100.00
2019-03-20T02:35:33.049Z,100.00
2019-03-20T02:38:02.608Z,100.00
2019-03-20T02:40:32.149Z,100.00
2019-03-20T02:43:01.699Z,100.00
2019-03-20T02:45:31.266Z,100.00
2019-03-20T02:48:00.813Z,100.00
2019-03-20T02:50:30.426Z,100.00
2019-03-20T02:52:59.971Z,100.00
2019-03-20T02:55:29.531Z,100.00
2019-03-20T02:57:59.260Z,100.00
2019-03-20T03:00:28.800Z,100.00
2019-03-20T03:02:58.352Z,100.00
2019-03-20T03:05:27.885Z,100.00
2019-03-20T03:07:57.442Z,100.00
2019-03-20T03:10:27.005Z,100.00
2019-03-20T03:12:56.559Z,100.00
2019-03-20T03:15:26.188Z,100.00
2019-03-20T03:17:55.705Z,100.00
2019-03-20T03:20:25.265Z,100.00
2019-03-20T03:22:54.804Z,100.00
2019-03-20T03:25:24.373Z,100.00
2019-03-20T03:27:53.983Z,100.00
2019-03-20T03:30:23.510Z,100.00
2019-03-20T03:32:53.091Z,100.00
2019-03-20T03:35:22.619Z,100.00
2019-03-20T03:37:52.178Z,100.00
2019-03-20T03:40:21.742Z,100.00
2019-03-20T03:42:51.282Z,100.00
2019-03-20T03:45:20.809Z,100.00
2019-03-20T03:47:50.362Z,100.00
2019-03-20T03:50:19.908Z,100.00
2019-03-20T03:52:49.441Z,100.00
2019-03-20T03:55:18.985Z,100.00
2019-03-20T03:57:48.560Z,100.00
2019-03-20T04:00:18.141Z,100.00
2019-03-20T04:02:47.687Z,100.00
2019-03-20T04:05:17.239Z,100.00
2019-03-20T04:07:46.793Z,100.00
2019-03-20T04:10:16.329Z,100.00
2019-03-20T04:12:45.915Z,100.00
2019-03-20T04:15:15.479Z,100.00
2019-03-20T04:17:45.052Z,100.00
2019-03-20T04:20:14.614Z,100.00
2019-03-20T04:22:44.151Z,100.00
2019-03-20T04:25:13.692Z,100.00
2019-03-20T04:27:43.280Z,100.00
2019-03-20T04:30:12.861Z,100.00
2019-03-20T04:32:42.394Z,100.00
2019-03-20T04:35:11.948Z,100.00
2019-03-20T04:37:41.563Z,100.00
2019-03-20T04:40:11.173Z,100.00
2019-03-20T04:42:40.713Z,100.00
2019-03-20T04:45:12.652Z,100.00
2019-03-20T04:47:42.337Z,100.00
2019-03-20T04:50:12.009Z,100.00
2019-03-20T04:52:41.534Z,100.00
2019-03-20T04:55:11.122Z,100.00
2019-03-20T04:57:40.784Z,100.00
2019-03-20T05:00:12.657Z,100.00
2019-03-20T05:02:42.210Z,100.00
2019-03-20T05:05:11.737Z,100.00
2019-03-20T05:07:41.295Z,100.00
2019-03-20T05:10:12.291Z,100.00
2019-03-20T05:12:41.877Z,100.00
2019-03-20T05:15:11.491Z,100.00
2019-03-20T05:17:41.042Z,100.00
2019-03-20T05:20:11.821Z,100.00
2019-03-20T05:22:41.388Z,100.00
2019-03-20T05:25:10.955Z,100.00
2019-03-20T05:27:40.543Z,100.00
2019-03-20T05:30:11.052Z,100.00
2019-03-20T05:32:40.662Z,100.00
2019-03-20T05:35:10.220Z,100.00
2019-03-20T05:37:39.789Z,100.00
2019-03-20T05:40:10.525Z,100.00
2019-03-20T05:42:40.070Z,100.00
2019-03-20T05:45:10.888Z,100.00
2019-03-20T05:47:40.451Z,100.00
2019-03-20T05:50:10.861Z,100.00
2019-03-20T05:52:40.421Z,100.00
2019-03-20T05:55:09.979Z,100.00
2019-03-20T05:57:39.574Z,100.00
2019-03-20T06:00:10.438Z,100.00
2019-03-20T06:02:39.983Z,100.00
2019-03-20T06:05:09.544Z,100.00
2019-03-20T06:07:39.092Z,100.00
2019-03-20T06:10:10.444Z,100.00
2019-03-20T06:12:40.108Z,100.00
2019-03-20T06:15:09.673Z,100.00
2019-03-20T06:17:39.231Z,100.00
2019-03-20T06:20:08.989Z,100.00
2019-03-20T06:22:38.537Z,100.00
2019-03-20T06:25:08.438Z,100.00
2019-03-20T06:27:37.968Z,100.00
2019-03-20T06:30:09.164Z,100.00
2019-03-20T06:32:38.700Z,99.71
2019-03-20T06:35:08.879Z,99.37
2019-03-20T06:37:38.454Z,100.00
2019-03-20T06:40:08.601Z,100.00
2019-03-20T06:42:38.124Z,99.92
2019-03-20T06:45:08.546Z,100.00
2019-03-20T06:47:38.108Z,100.00
2019-03-20T06:50:10.782Z,100.00
2019-03-20T06:52:40.316Z,100.00
2019-03-20T06:55:09.958Z,99.99
2019-03-20T06:57:39.523Z,100.00
2019-03-20T07:00:52.996Z,100.00
2019-03-20T07:03:41.812Z,100.00
2019-03-20T07:06:35.655Z,100.00
2019-03-20T07:09:15.998Z,100.00
2019-03-20T07:11:45.589Z,99.52
2019-03-20T07:14:15.122Z,98.46
2019-03-20T07:16:44.666Z,97.97
2019-03-20T07:19:14.211Z,97.32
2019-03-20T07:21:43.807Z,96.12
2019-03-20T07:24:13.386Z,96.20
2019-03-20T07:26:42.922Z,95.24
2019-03-20T07:29:12.481Z,93.98
2019-03-20T07:31:42.015Z,92.72
2019-03-20T07:34:11.569Z,92.01
2019-03-20T07:36:41.116Z,92.07
2019-03-20T07:39:11.074Z,90.91
2019-03-20T07:41:40.723Z,89.79
2019-03-20T07:44:10.268Z,89.80
2019-03-20T07:46:39.802Z,89.74
2019-03-20T07:49:09.372Z,90.83
2019-03-20T07:51:38.910Z,90.63
2019-03-20T07:54:08.288Z,91.22
2019-03-20T07:56:37.820Z,91.28
2019-03-20T07:59:07.372Z,91.37
2019-03-20T08:01:36.911Z,90.77
2019-03-20T08:04:06.474Z,90.08
2019-03-20T08:06:36.141Z,89.10
2019-03-20T08:09:07.638Z,88.51
2019-03-20T08:11:37.167Z,87.62
2019-03-20T08:14:06.706Z,87.45
2019-03-20T08:16:36.263Z,87.69
2019-03-20T08:19:05.799Z,87.53
2019-03-20T08:21:35.338Z,86.90
2019-03-20T08:24:04.884Z,86.60
2019-03-20T08:26:34.520Z,87.41
2019-03-20T08:29:04.065Z,87.81
2019-03-20T08:31:33.613Z,88.75
2019-03-20T08:34:03.160Z,89.61
2019-03-20T08:36:32.799Z,89.29
2019-03-20T08:39:02.316Z,89.75
2019-03-20T08:41:31.859Z,89.48
2019-03-20T08:44:01.399Z,88.90
2019-03-20T08:46:30.960Z,88.34
2019-03-20T08:49:00.489Z,89.03
2019-03-20T08:51:30.044Z,88.67
2019-03-20T08:53:59.594Z,87.68
2019-03-20T08:56:29.171Z,87.47
2019-03-20T08:58:58.750Z,87.54
2019-03-20T09:01:29.118Z,88.18
2019-03-20T09:03:58.844Z,88.60
2019-03-20T09:06:28.400Z,88.30
2019-03-20T09:08:57.946Z,87.48
2019-03-20T09:11:27.510Z,87.08
2019-03-20T09:13:57.054Z,86.03
2019-03-20T09:16:27.381Z,84.46
2019-03-20T09:18:57.117Z,84.87
2019-03-20T09:21:26.750Z,84.01
2019-03-20T09:23:56.275Z,83.28
2019-03-20T09:26:25.846Z,81.79
2019-03-20T09:28:55.392Z,81.74
2019-03-20T09:31:24.942Z,80.75
2019-03-20T09:33:54.607Z,79.60
2019-03-20T09:36:24.232Z,78.67
2019-03-20T09:38:53.782Z,78.84
2019-03-20T09:41:23.380Z,77.07
2019-03-20T09:43:52.926Z,77.16
2019-03-20T09:46:22.536Z,77.15
2019-03-20T09:48:52.103Z,75.54
2019-03-20T09:51:21.649Z,75.58
2019-03-20T09:53:51.181Z,74.88
2019-03-20T09:56:20.720Z,74.45
2019-03-20T09:58:50.278Z,74.37
2019-03-20T10:01:19.827Z,73.53
2019-03-20T10:03:49.382Z,72.38
2019-03-20T10:06:18.935Z,72.31
2019-03-20T10:08:53.941Z,70.36
2019-03-20T10:11:19.764Z,67.51
2019-03-20T10:13:49.311Z,65.52
2019-03-20T10:16:18.858Z,64.39
2019-03-20T10:18:48.449Z,63.16
2019-03-20T10:21:17.988Z,62.23
2019-03-20T10:23:47.539Z,60.15
2019-03-20T10:26:17.070Z,57.53
2019-03-20T10:28:46.624Z,55.50
2019-03-20T10:31:16.163Z,57.89
2019-03-20T10:33:45.747Z,58.49
2019-03-20T10:36:15.271Z,58.52
2019-03-20T10:38:44.852Z,57.46
2019-03-20T10:41:14.409Z,54.84
2019-03-20T10:43:43.959Z,51.28
2019-03-20T10:46:13.498Z,51.24
2019-03-20T10:48:43.046Z,55.17
2019-03-20T10:51:12.591Z,54.38
2019-03-20T10:53:42.153Z,52.64
2019-03-20T10:56:11.878Z,54.20
2019-03-20T10:58:41.430Z,52.86
2019-03-20T11:01:11.031Z,52.36
2019-03-20T11:03:40.592Z,51.84
2019-03-20T11:06:10.165Z,48.51
2019-03-20T11:08:39.717Z,47.19
2019-03-20T11:11:09.272Z,48.39
2019-03-20T11:13:38.837Z,49.44
2019-03-20T11:16:08.419Z,47.83
2019-03-20T11:18:38.309Z,50.69
2019-03-20T11:21:08.013Z,48.84
2019-03-20T11:23:37.604Z,50.33
2019-03-20T11:26:07.486Z,48.72
2019-03-20T11:28:37.183Z,47.24
2019-03-20T11:31:06.725Z,44.35
2019-03-20T11:33:36.517Z,43.00
2019-03-20T11:36:06.079Z,42.50
2019-03-20T11:38:35.626Z,43.66
2019-03-20T11:41:05.325Z,44.07
2019-03-20T11:43:34.878Z,45.03
2019-03-20T11:46:04.422Z,47.15
2019-03-20T11:48:33.973Z,49.68
2019-03-20T11:51:03.535Z,50.65
2019-03-20T11:53:33.083Z,51.09
2019-03-20T11:56:02.615Z,49.33
2019-03-20T11:58:32.173Z,47.48
2019-03-20T12:01:01.863Z,46.73
2019-03-20T12:03:31.605Z,45.56
2019-03-20T12:06:01.136Z,47.11
2019-03-20T12:08:30.695Z,48.58
2019-03-20T12:11:00.282Z,48.36
2019-03-20T12:13:29.854Z,49.46
2019-03-20T12:15:59.596Z,50.27
2019-03-20T12:18:29.203Z,50.35
2019-03-20T12:20:58.809Z,47.96
2019-03-20T12:23:28.382Z,47.44
2019-03-20T12:25:57.917Z,46.97
2019-03-20T12:28:27.499Z,45.72
2019-03-20T12:30:57.025Z,43.82
2019-03-20T12:33:26.551Z,42.39
2019-03-20T12:35:56.101Z,41.49
2019-03-20T12:38:25.699Z,40.88
2019-03-20T12:40:55.240Z,41.57
2019-03-20T12:43:24.793Z,42.30
2019-03-20T12:45:54.348Z,44.13
2019-03-20T12:48:23.950Z,45.64
2019-03-20T12:50:53.503Z,47.21
2019-03-20T12:53:24.060Z,48.82
2019-03-20T12:55:53.609Z,49.24
2019-03-20T12:58:23.156Z,51.00
2019-03-20T13:00:54.546Z,50.99
2019-03-20T13:03:23.974Z,51.13
2019-03-20T13:05:53.536Z,51.97
2019-03-20T13:08:23.159Z,52.89
2019-03-20T13:10:52.654Z,53.29
2019-03-20T13:13:22.185Z,53.78
2019-03-20T13:15:51.773Z,53.84
2019-03-20T13:18:21.318Z,54.51
2019-03-20T13:20:50.938Z,54.64
2019-03-20T13:23:22.752Z,55.18
2019-03-20T13:25:52.294Z,54.93
2019-03-20T13:28:21.849Z,54.61
2019-03-20T13:30:54.623Z,55.26
2019-03-20T13:33:26.053Z,53.75
2019-03-20T13:35:55.442Z,55.21
2019-03-20T13:38:25.014Z,56.30
2019-03-20T13:40:54.546Z,55.54
2019-03-20T13:43:24.078Z,55.82
2019-03-20T13:45:53.606Z,52.04
2019-03-20T13:48:23.179Z,51.34
2019-03-20T13:50:52.735Z,51.18
2019-03-20T13:53:22.278Z,50.45
2019-03-20T13:55:51.816Z,50.51
2019-03-20T13:58:21.353Z,50.75
2019-03-20T14:00:50.941Z,50.62
2019-03-20T14:03:20.531Z,50.65
2019-03-20T14:05:50.072Z,50.20
2019-03-20T14:08:19.615Z,49.79
2019-03-20T14:10:50.818Z,50.49
2019-03-20T14:13:20.575Z,49.83
2019-03-20T14:15:50.125Z,49.97
2019-03-20T14:18:19.693Z,49.86
2019-03-20T14:20:49.242Z,51.04
2019-03-20T14:23:18.787Z,50.48
2019-03-20T14:25:48.312Z,50.39
2019-03-20T14:28:17.851Z,51.39
2019-03-20T14:30:47.394Z,50.44
2019-03-20T14:33:16.947Z,50.82
2019-03-20T14:35:46.489Z,50.14
2019-03-20T14:38:16.022Z,51.47
2019-03-20T14:40:45.557Z,51.30
2019-03-20T14:43:15.175Z,50.88
2019-03-20T14:45:44.842Z,50.59
2019-03-20T14:48:14.390Z,50.28
2019-03-20T14:50:43.926Z,47.69
2019-03-20T14:53:13.474Z,48.81
2019-03-20T14:55:43.052Z,50.08
2019-03-20T14:58:12.587Z,49.35
2019-03-20T15:00:42.136Z,49.67
2019-03-20T15:03:11.679Z,49.86
2019-03-20T15:05:41.354Z,49.11
2019-03-20T15:08:10.872Z,48.31
2019-03-20T15:10:45.838Z,46.48
2019-03-20T15:13:11.710Z,45.37
2019-03-20T15:15:47.558Z,46.62
2019-03-20T15:18:17.087Z,46.78
2019-03-20T15:20:46.654Z,46.84
2019-03-20T15:23:16.235Z,45.01
2019-03-20T15:25:45.785Z,45.65
2019-03-20T15:28:15.347Z,46.88
2019-03-20T15:30:44.888Z,46.83
2019-03-20T15:33:14.447Z,47.14
2019-03-20T15:35:44.024Z,48.70
2019-03-20T15:38:13.556Z,46.60
2019-03-20T15:40:43.087Z,45.68
2019-03-20T15:43:12.639Z,45.86
2019-03-20T15:45:42.304Z,47.30
2019-03-20T15:48:11.870Z,47.99
2019-03-20T15:50:41.426Z,48.64
2019-03-20T15:53:11.088Z,48.51
2019-03-20T15:55:40.621Z,49.54
2019-03-20T15:58:10.225Z,50.38
2019-03-20T16:00:39.890Z,50.38
2019-03-20T16:03:12.269Z,51.49
2019-03-20T16:05:41.814Z,51.50
2019-03-20T16:08:11.388Z,51.24
2019-03-20T16:10:40.964Z,52.18
2019-03-20T16:13:10.502Z,51.97
2019-03-20T16:15:40.046Z,52.85
2019-03-20T16:18:09.641Z,53.11
2019-03-20T16:20:39.187Z,54.33
2019-03-20T16:23:08.769Z,54.15
2019-03-20T16:25:38.300Z,54.51
2019-03-20T16:28:07.895Z,55.49
2019-03-20T16:30:37.432Z,56.08
2019-03-20T16:33:06.993Z,56.63
2019-03-20T16:35:36.538Z,57.42
2019-03-20T16:38:07.049Z,57.82
2019-03-20T16:40:36.953Z,58.19
2019-03-20T16:43:06.497Z,59.90
2019-03-20T16:45:36.088Z,59.68
2019-03-20T16:48:05.714Z,61.01
2019-03-20T16:50:35.279Z,60.69
2019-03-20T16:53:04.817Z,60.47
2019-03-20T16:55:34.371Z,60.96
2019-03-20T16:58:03.947Z,60.55
2019-03-20T17:00:33.502Z,60.89
2019-03-20T17:03:03.036Z,61.73
2019-03-20T17:05:32.669Z,61.99
2019-03-20T17:08:02.218Z,62.17
2019-03-20T17:10:34.129Z,63.01
2019-03-20T17:13:03.748Z,63.60
2019-03-20T17:15:33.387Z,63.84
2019-03-20T17:18:02.895Z,64.48
2019-03-20T17:20:32.451Z,64.69
2019-03-20T17:23:02.014Z,65.13
2019-03-20T17:25:31.619Z,65.83
2019-03-20T17:28:01.169Z,66.37
2019-03-20T17:30:32.732Z,67.02
2019-03-20T17:33:02.386Z,67.39
2019-03-20T17:35:31.942Z,68.38
2019-03-20T17:38:01.574Z,68.63
2019-03-20T17:40:31.112Z,69.54
2019-03-20T17:43:00.662Z,70.21
2019-03-20T17:45:30.240Z,70.64
2019-03-20T17:47:59.789Z,70.56
2019-03-20T17:50:29.601Z,70.72
2019-03-20T17:52:59.193Z,71.25
2019-03-20T17:55:28.832Z,71.90
2019-03-20T17:57:58.391Z,72.59
2019-03-20T18:00:35.909Z,72.77
2019-03-20T18:03:05.570Z,73.18
2019-03-20T18:05:35.109Z,73.70
2019-03-20T18:08:04.820Z,74.17
2019-03-20T18:10:34.347Z,74.45
2019-03-20T18:13:03.910Z,75.24
2019-03-20T18:15:33.439Z,75.66
2019-03-20T18:18:03.038Z,75.85
2019-03-20T18:20:32.605Z,75.97
2019-03-20T18:23:02.162Z,76.66
2019-03-20T18:25:31.690Z,77.09
2019-03-20T18:28:01.310Z,77.59
2019-03-20T18:30:31.030Z,78.10
2019-03-20T18:33:00.599Z,78.28
2019-03-20T18:35:30.149Z,78.92
2019-03-20T18:37:59.663Z,79.20
2019-03-20T18:40:29.214Z,79.75
2019-03-20T18:42:58.832Z,80.08
2019-03-20T18:45:28.408Z,80.57
2019-03-20T18:47:57.935Z,80.85
2019-03-20T18:50:27.494Z,81.35
2019-03-20T18:52:57.039Z,82.26
2019-03-20T18:55:26.693Z,83.08
2019-03-20T18:57:56.300Z,82.35
2019-03-20T19:00:26.213Z,82.99
2019-03-20T19:02:56.620Z,82.57
2019-03-20T19:05:35.653Z,82.38
2019-03-20T19:08:05.317Z,82.56
2019-03-20T19:10:34.938Z,82.39
2019-03-20T19:13:04.560Z,82.41
2019-03-20T19:15:34.126Z,82.75
2019-03-20T19:18:03.731Z,82.62
2019-03-20T19:20:33.318Z,82.40
2019-03-20T19:23:02.855Z,82.43
2019-03-20T19:25:36.358Z,82.64
2019-03-20T19:28:06.025Z,82.82
2019-03-20T19:30:35.598Z,82.76
2019-03-20T19:33:05.277Z,82.49
2019-03-20T19:35:34.817Z,82.65
2019-03-20T19:38:04.352Z,83.05
2019-03-20T19:41:37.004Z,83.50
2019-03-20T19:44:50.006Z,83.60
2019-03-20T19:48:29.541Z,83.82
2019-03-20T19:51:14.943Z,84.13
2019-03-20T19:54:02.236Z,84.65
2019-03-20T19:56:37.838Z,84.78
2019-03-20T19:59:07.378Z,85.21
2019-03-20T20:02:30.834Z,85.77
2019-03-20T20:05:00.422Z,86.04
2019-03-20T20:07:29.973Z,86.15
2019-03-20T20:09:59.514Z,86.82
2019-03-20T20:12:31.497Z,86.98
2019-03-20T20:15:00.418Z,87.41
2019-03-20T20:17:29.947Z,87.70
2019-03-20T20:19:59.531Z,87.89
2019-03-20T20:22:29.075Z,88.21
2019-03-20T20:24:58.628Z,88.81
2019-03-20T20:27:28.241Z,89.09
2019-03-20T20:29:57.823Z,89.15
2019-03-20T20:32:27.365Z,88.93
2019-03-20T20:34:56.905Z,88.95
2019-03-20T20:37:26.542Z,88.88
2019-03-20T20:39:56.198Z,89.11
2019-03-20T20:42:25.768Z,89.35
2019-03-20T20:44:55.308Z,89.46
2019-03-20T20:47:24.847Z,89.20
2019-03-20T20:49:54.521Z,89.40
2019-03-20T20:52:24.079Z,89.54
2019-03-20T20:54:53.688Z,89.29
2019-03-20T20:57:23.224Z,89.41
2019-03-20T20:59:52.800Z,89.56
2019-03-20T21:02:22.331Z,89.13
2019-03-20T21:04:51.908Z,89.10
2019-03-20T21:07:21.474Z,88.77
2019-03-20T21:09:51.035Z,88.39
2019-03-20T21:12:20.573Z,88.04
2019-03-20T21:14:51.112Z,87.93
2019-03-20T21:17:27.396Z,87.66
2019-03-20T21:19:57.474Z,87.52
2019-03-20T21:23:03.683Z,87.36
2019-03-20T21:25:33.806Z,87.04
2019-03-20T21:28:50.469Z,86.93
2019-03-20T21:31:40.710Z,87.17
2019-03-20T21:34:56.950Z,87.09
2019-03-20T21:38:10.733Z,87.33
2019-03-20T21:41:21.453Z,88.43
2019-03-20T21:44:42.429Z,89.09
2019-03-20T21:47:33.616Z,89.09
2019-03-20T21:51:02.110Z,89.40
2019-03-20T21:54:11.279Z,89.70
2019-03-20T21:56:45.070Z,90.40
2019-03-20T21:59:45.244Z,90.82
2019-03-20T22:02:42.436Z,92.19
2019-03-20T22:05:55.222Z,92.45
2019-03-20T22:08:25.296Z,92.77
2019-03-20T22:11:41.999Z,93.86
2019-03-20T22:14:12.073Z,94.16
2019-03-20T22:17:17.442Z,93.66
2019-03-20T22:20:37.015Z,93.63
2019-03-20T22:23:40.328Z,94.18
2019-03-20T22:26:46.769Z,94.32
2019-03-20T22:29:27.381Z,94.96
2019-03-20T22:32:44.394Z,95.77
2019-03-20T22:35:47.475Z,96.90
2019-03-20T22:39:09.282Z,97.62
2019-03-20T22:42:25.943Z,96.76
2019-03-20T22:45:20.523Z,97.54
2019-03-20T22:48:18.881Z,97.28
2019-03-20T22:51:16.982Z,97.26
2019-03-20T22:54:18.199Z,97.49
2019-03-20T22:57:11.792Z,97.94
2019-03-20T22:59:41.866Z,97.43
2019-03-20T23:02:38.149Z,97.18
2019-03-20T23:05:09.188Z,96.75
2019-03-20T23:07:39.300Z,96.41
2019-03-20T23:10:11.991Z,96.78
2019-03-20T23:12:42.072Z,96.98
2019-03-20T23:15:14.596Z,96.99
2019-03-20T23:17:44.694Z,96.92
2019-03-20T23:20:17.281Z,97.01
2019-03-20T23:22:47.369Z,97.03
2019-03-20T23:25:17.453Z,97.14
2019-03-20T23:27:47.568Z,97.50
2019-03-20T23:30:20.633Z,97.99
2019-03-20T23:32:50.705Z,98.01
2019-03-20T23:35:20.796Z,97.71
2019-03-20T23:37:50.910Z,97.05
2019-03-20T23:40:20.986Z,96.10
2019-03-20T23:42:51.121Z,95.44
2019-03-20T23:45:21.219Z,95.19
2019-03-20T23:48:17.716Z,94.91
2019-03-20T23:50:48.226Z,95.30
2019-03-20T23:53:18.292Z,96.00
2019-03-20T23:55:48.364Z,96.74
2019-03-20T23:58:18.426Z,97.04
